UAL2859 KDEN-KEGE
Flight info
| Callsign | UAL2859 |
|---|---|
| Flight time | 0h 26m |
| Altitude | 24000 |
| Route | ZIMMR4 ZIMMR CULCH |
| Aircraft | A320/M-SDE3FGHIRWY/LB1 |
Departure
| Time | 2026-05-09 03:14 |
|---|---|
| Airport | Denver International Airport (KDEN) |
Arrival
| Time | 2026-05-09 03:40 |
|---|---|
| Airport | Eagle County Regional Airport (KEGE) |
| Time | Latitude | Longitude | Altitude | Speed | Heading |
|---|---|---|---|---|---|
| 2026-05-09 02:46 | 39.85341 | -104.67614 | 5386 ft | 0 kts | 1° |
| 2026-05-09 03:02 | 39.85340 | -104.67614 | 5385 ft | 2 kts | 1° |
| 2026-05-09 03:02 | 39.85315 | -104.67613 | 5386 ft | 4 kts | 11° |
| 2026-05-09 03:02 | 39.85293 | -104.67621 | 5384 ft | 4 kts | 35° |
| 2026-05-09 03:03 | 39.85280 | -104.67647 | 5384 ft | 4 kts | 86° |
| 2026-05-09 03:03 | 39.85279 | -104.67671 | 5383 ft | 0 kts | 87° |
| 2026-05-09 03:05 | 39.85279 | -104.67668 | 5382 ft | 1 kts | 87° |
| 2026-05-09 03:06 | 39.85280 | -104.67649 | 5384 ft | 3 kts | 88° |
| 2026-05-09 03:06 | 39.85280 | -104.67612 | 5385 ft | 5 kts | 90° |
| 2026-05-09 03:06 | 39.85280 | -104.67560 | 5385 ft | 7 kts | 91° |
| 2026-05-09 03:06 | 39.85278 | -104.67491 | 5385 ft | 9 kts | 92° |
| 2026-05-09 03:07 | 39.85278 | -104.67409 | 5386 ft | 9 kts | 90° |
| 2026-05-09 03:07 | 39.85277 | -104.67317 | 5386 ft | 11 kts | 90° |
| 2026-05-09 03:07 | 39.85277 | -104.67201 | 5386 ft | 14 kts | 91° |
| 2026-05-09 03:07 | 39.85275 | -104.67069 | 5387 ft | 15 kts | 91° |
| 2026-05-09 03:08 | 39.85274 | -104.66932 | 5389 ft | 15 kts | 90° |
| 2026-05-09 03:08 | 39.85274 | -104.66794 | 5392 ft | 15 kts | 90° |
| 2026-05-09 03:08 | 39.85273 | -104.66660 | 5386 ft | 15 kts | 91° |
| 2026-05-09 03:08 | 39.85290 | -104.66534 | 5395 ft | 14 kts | 68° |
| 2026-05-09 03:09 | 39.85296 | -104.66405 | 5399 ft | 15 kts | 95° |
| 2026-05-09 03:09 | 39.85298 | -104.66268 | 5400 ft | 15 kts | 64° |
| 2026-05-09 03:09 | 39.85402 | -104.66240 | 5396 ft | 17 kts | 356° |
| 2026-05-09 03:09 | 39.85525 | -104.66235 | 5394 ft | 19 kts | 0° |
| 2026-05-09 03:10 | 39.85666 | -104.66234 | 5391 ft | 22 kts | 359° |
| 2026-05-09 03:10 | 39.85825 | -104.66235 | 5395 ft | 24 kts | 1° |
| 2026-05-09 03:10 | 39.86003 | -104.66230 | 5390 ft | 25 kts | 1° |
| 2026-05-09 03:10 | 39.86064 | -104.66229 | 5387 ft | 3 kts | 0° |
| 2026-05-09 03:11 | 39.86100 | -104.66218 | 5388 ft | 2 kts | 37° |
| 2026-05-09 03:11 | 39.86109 | -104.66199 | 5384 ft | 4 kts | 72° |
| 2026-05-09 03:11 | 39.86108 | -104.66183 | 5387 ft | 0 kts | 95° |
| 2026-05-09 03:12 | 39.86107 | -104.66171 | 5387 ft | 3 kts | 95° |
| 2026-05-09 03:12 | 39.86105 | -104.66133 | 5387 ft | 6 kts | 91° |
| 2026-05-09 03:12 | 39.86106 | -104.66064 | 5387 ft | 9 kts | 89° |
| 2026-05-09 03:13 | 39.85930 | -104.66018 | 5392 ft | 50 kts | 180° |
| 2026-05-09 03:13 | 39.85320 | -104.66024 | 5395 ft | 122 kts | 180° |
| 2026-05-09 03:13 | 39.84287 | -104.66037 | 5523 ft | 164 kts | 180° |
| 2026-05-09 03:14 | 39.83163 | -104.66146 | 6383 ft | 164 kts | 196° |
| 2026-05-09 03:14 | 39.82242 | -104.67009 | 7082 ft | 171 kts | 234° |
| 2026-05-09 03:14 | 39.81941 | -104.68549 | 7457 ft | 192 kts | 277° |
| 2026-05-09 03:14 | 39.82547 | -104.70202 | 7712 ft | 217 kts | 302° |
| 2026-05-09 03:15 | 39.83455 | -104.71917 | 8026 ft | 243 kts | 303° |
| 2026-05-09 03:15 | 39.84467 | -104.73807 | 8460 ft | 267 kts | 303° |
| 2026-05-09 03:15 | 39.85565 | -104.75865 | 9073 ft | 283 kts | 303° |
| 2026-05-09 03:15 | 39.86692 | -104.77987 | 9983 ft | 286 kts | 303° |
| 2026-05-09 03:16 | 39.87820 | -104.80125 | 10879 ft | 287 kts | 303° |
| 2026-05-09 03:16 | 39.88949 | -104.82275 | 11797 ft | 288 kts | 303° |
| 2026-05-09 03:16 | 39.90075 | -104.84428 | 12718 ft | 288 kts | 302° |
| 2026-05-09 03:16 | 39.91204 | -104.86596 | 13538 ft | 294 kts | 302° |
| 2026-05-09 03:17 | 39.92394 | -104.88892 | 13770 ft | 317 kts | 301° |
| 2026-05-09 03:17 | 39.93315 | -104.91540 | 13997 ft | 336 kts | 284° |
| 2026-05-09 03:17 | 39.93698 | -104.94576 | 14650 ft | 338 kts | 275° |
| 2026-05-09 03:17 | 39.93763 | -104.97553 | 16009 ft | 319 kts | 271° |
| 2026-05-09 03:18 | 39.93721 | -105.00368 | 17325 ft | 305 kts | 270° |
| 2026-05-09 03:18 | 39.93668 | -105.03117 | 18291 ft | 303 kts | 270° |
| 2026-05-09 03:18 | 39.93643 | -105.05874 | 18971 ft | 305 kts | 272° |
| 2026-05-09 03:18 | 39.93653 | -105.08660 | 19621 ft | 308 kts | 273° |
| 2026-05-09 03:19 | 39.93691 | -105.11467 | 20281 ft | 311 kts | 274° |
| 2026-05-09 03:19 | 39.93746 | -105.14298 | 20926 ft | 314 kts | 274° |
| 2026-05-09 03:19 | 39.93809 | -105.17155 | 21547 ft | 317 kts | 275° |
| 2026-05-09 03:19 | 39.93876 | -105.20043 | 22165 ft | 320 kts | 275° |
| 2026-05-09 03:20 | 39.93958 | -105.22962 | 22761 ft | 323 kts | 276° |
| 2026-05-09 03:20 | 39.94129 | -105.25895 | 22996 ft | 325 kts | 278° |
| 2026-05-09 03:20 | 39.94365 | -105.28830 | 23201 ft | 327 kts | 279° |
| 2026-05-09 03:20 | 39.94626 | -105.31782 | 23787 ft | 331 kts | 279° |
| 2026-05-09 03:21 | 39.94864 | -105.34823 | 23968 ft | 345 kts | 279° |
| 2026-05-09 03:21 | 39.95084 | -105.38015 | 24018 ft | 363 kts | 278° |
| 2026-05-09 03:21 | 39.95299 | -105.41381 | 24014 ft | 381 kts | 277° |
| 2026-05-09 03:21 | 39.95517 | -105.44887 | 24004 ft | 392 kts | 277° |
| 2026-05-09 03:22 | 39.95742 | -105.48460 | 23995 ft | 402 kts | 277° |
| 2026-05-09 03:22 | 39.95980 | -105.52139 | 23985 ft | 412 kts | 278° |
| 2026-05-09 03:22 | 39.96222 | -105.55872 | 23975 ft | 415 kts | 277° |
| 2026-05-09 03:22 | 39.96465 | -105.59628 | 24027 ft | 416 kts | 277° |
| 2026-05-09 03:23 | 39.96705 | -105.63385 | 24053 ft | 416 kts | 277° |
| 2026-05-09 03:23 | 39.96942 | -105.67140 | 24082 ft | 415 kts | 277° |
| 2026-05-09 03:23 | 39.97174 | -105.70893 | 24106 ft | 415 kts | 277° |
| 2026-05-09 03:23 | 39.97404 | -105.74647 | 24126 ft | 415 kts | 277° |
| 2026-05-09 03:24 | 39.97634 | -105.78400 | 24148 ft | 415 kts | 277° |
| 2026-05-09 03:24 | 39.97863 | -105.82151 | 24166 ft | 415 kts | 277° |
| 2026-05-09 03:24 | 39.98091 | -105.85901 | 24177 ft | 415 kts | 277° |
| 2026-05-09 03:24 | 39.98319 | -105.89655 | 24138 ft | 413 kts | 277° |
| 2026-05-09 03:25 | 39.98541 | -105.93352 | 23909 ft | 407 kts | 277° |
| 2026-05-09 03:25 | 39.98760 | -105.97022 | 23661 ft | 404 kts | 277° |
| 2026-05-09 03:25 | 39.98979 | -106.00667 | 23366 ft | 401 kts | 277° |
| 2026-05-09 03:25 | 39.99196 | -106.04266 | 22669 ft | 395 kts | 277° |
| 2026-05-09 03:26 | 39.99408 | -106.07827 | 21928 ft | 392 kts | 276° |
| 2026-05-09 03:26 | 39.99617 | -106.11353 | 21234 ft | 388 kts | 276° |
| 2026-05-09 03:26 | 39.99822 | -106.14844 | 20564 ft | 385 kts | 276° |
| 2026-05-09 03:26 | 40.00023 | -106.18271 | 19932 ft | 383 kts | 276° |
| 2026-05-09 03:27 | 40.00220 | -106.21692 | 19675 ft | 371 kts | 276° |
| 2026-05-09 03:27 | 40.00408 | -106.24984 | 19499 ft | 357 kts | 276° |
| 2026-05-09 03:27 | 40.00583 | -106.28113 | 19349 ft | 332 kts | 276° |
| 2026-05-09 03:27 | 40.00744 | -106.31004 | 19209 ft | 308 kts | 276° |
| 2026-05-09 03:28 | 40.00894 | -106.33688 | 19068 ft | 286 kts | 276° |
| 2026-05-09 03:28 | 40.01037 | -106.36194 | 18932 ft | 268 kts | 276° |
| 2026-05-09 03:28 | 40.01129 | -106.37803 | 18767 ft | 259 kts | 276° |
| 2026-05-09 03:28 | 40.01253 | -106.40122 | 18366 ft | 254 kts | 273° |
| 2026-05-09 03:29 | 40.01006 | -106.42397 | 17863 ft | 256 kts | 254° |
| 2026-05-09 03:29 | 40.00167 | -106.44446 | 17316 ft | 260 kts | 235° |
| 2026-05-09 03:29 | 39.98824 | -106.46052 | 16762 ft | 265 kts | 222° |
| 2026-05-09 03:29 | 39.97356 | -106.47490 | 16242 ft | 263 kts | 222° |
| 2026-05-09 03:30 | 39.95897 | -106.48923 | 15768 ft | 261 kts | 222° |
| 2026-05-09 03:30 | 39.94454 | -106.50346 | 15296 ft | 259 kts | 221° |
| 2026-05-09 03:30 | 39.93021 | -106.51759 | 14822 ft | 257 kts | 221° |
| 2026-05-09 03:30 | 39.91599 | -106.53159 | 14386 ft | 255 kts | 221° |
| 2026-05-09 03:31 | 39.90187 | -106.54548 | 13944 ft | 253 kts | 221° |
| 2026-05-09 03:31 | 39.88785 | -106.55927 | 13442 ft | 252 kts | 221° |
| 2026-05-09 03:31 | 39.87390 | -106.57301 | 13163 ft | 249 kts | 220° |
| 2026-05-09 03:31 | 39.86041 | -106.58628 | 13056 ft | 243 kts | 221° |
| 2026-05-09 03:32 | 39.84712 | -106.59933 | 12956 ft | 235 kts | 221° |
| 2026-05-09 03:32 | 39.83431 | -106.61153 | 13013 ft | 222 kts | 216° |
| 2026-05-09 03:32 | 39.82009 | -106.61902 | 12875 ft | 222 kts | 196° |
| 2026-05-09 03:32 | 39.80477 | -106.62173 | 12562 ft | 222 kts | 192° |
| 2026-05-09 03:33 | 39.78938 | -106.62418 | 12255 ft | 222 kts | 191° |
| 2026-05-09 03:33 | 39.77416 | -106.62658 | 11953 ft | 220 kts | 191° |
| 2026-05-09 03:33 | 39.75898 | -106.62900 | 11677 ft | 218 kts | 191° |
| 2026-05-09 03:33 | 39.74398 | -106.63141 | 11448 ft | 216 kts | 191° |
| 2026-05-09 03:34 | 39.72930 | -106.63376 | 11414 ft | 208 kts | 191° |
| 2026-05-09 03:34 | 39.71496 | -106.63605 | 11428 ft | 207 kts | 192° |
| 2026-05-09 03:34 | 39.70140 | -106.64136 | 11425 ft | 202 kts | 212° |
| 2026-05-09 03:34 | 39.69028 | -106.65207 | 11353 ft | 200 kts | 230° |
| 2026-05-09 03:35 | 39.68161 | -106.66607 | 11050 ft | 198 kts | 234° |
| 2026-05-09 03:35 | 39.67322 | -106.68004 | 10762 ft | 195 kts | 235° |
| 2026-05-09 03:35 | 39.66707 | -106.69493 | 10483 ft | 181 kts | 256° |
| 2026-05-09 03:35 | 39.66509 | -106.71029 | 10224 ft | 163 kts | 264° |
| 2026-05-09 03:36 | 39.66357 | -106.72438 | 9957 ft | 153 kts | 262° |
| 2026-05-09 03:36 | 39.66211 | -106.73788 | 9685 ft | 148 kts | 263° |
| 2026-05-09 03:36 | 39.66068 | -106.75099 | 9438 ft | 146 kts | 262° |
| 2026-05-09 03:36 | 39.65926 | -106.76399 | 9228 ft | 146 kts | 262° |
| 2026-05-09 03:37 | 39.65784 | -106.77697 | 9008 ft | 146 kts | 262° |
| 2026-05-09 03:37 | 39.65644 | -106.79004 | 8771 ft | 146 kts | 262° |
| 2026-05-09 03:37 | 39.65507 | -106.80295 | 8510 ft | 144 kts | 262° |
| 2026-05-09 03:37 | 39.65383 | -106.81577 | 8325 ft | 145 kts | 262° |
| 2026-05-09 03:38 | 39.65234 | -106.82881 | 7991 ft | 145 kts | 261° |
| 2026-05-09 03:38 | 39.65081 | -106.84184 | 7678 ft | 143 kts | 262° |
| 2026-05-09 03:38 | 39.64947 | -106.85475 | 7448 ft | 145 kts | 261° |
| 2026-05-09 03:38 | 39.64793 | -106.86771 | 7196 ft | 146 kts | 261° |
| 2026-05-09 03:39 | 39.64663 | -106.88077 | 6952 ft | 146 kts | 261° |
| 2026-05-09 03:39 | 39.64518 | -106.89379 | 6720 ft | 146 kts | 260° |
| 2026-05-09 03:39 | 39.64377 | -106.90674 | 6523 ft | 141 kts | 260° |
| 2026-05-09 03:39 | 39.64268 | -106.91652 | 6483 ft | 67 kts | 263° |
| 2026-05-09 03:40 | 39.64238 | -106.91969 | 6471 ft | 26 kts | 262° |
| 2026-05-09 03:40 | 39.64210 | -106.92205 | 6465 ft | 18 kts | 261° |
| 2026-05-09 03:40 | 39.64134 | -106.92278 | 6456 ft | 15 kts | 169° |
| 2026-05-09 03:40 | 39.64102 | -106.92170 | 6465 ft | 14 kts | 83° |
| 2026-05-09 03:41 | 39.64116 | -106.92050 | 6468 ft | 13 kts | 80° |
| 2026-05-09 03:41 | 39.64130 | -106.91945 | 6472 ft | 11 kts | 80° |
| 2026-05-09 03:41 | 39.64138 | -106.91857 | 6461 ft | 9 kts | 83° |
| 2026-05-09 03:41 | 39.64144 | -106.91785 | 6478 ft | 7 kts | 84° |
| 2026-05-09 03:42 | 39.64151 | -106.91725 | 6470 ft | 7 kts | 79° |
| 2026-05-09 03:42 | 39.64163 | -106.91633 | 6480 ft | 12 kts | 86° |
| 2026-05-09 03:42 | 39.64125 | -106.91544 | 6486 ft | 11 kts | 126° |
| 2026-05-09 03:42 | 39.64120 | -106.91488 | 6488 ft | 4 kts | 84° |
| 2026-05-09 03:43 | 39.64121 | -106.91469 | 6489 ft | 0 kts | 84° |